Time;durP1;ratioP1;P1;durP2;ratioP2;P2;SDS_P1;SDS_P2;PMS_P1;PMS_P2;Temp;Humidity;BMP_temperature;BMP_pressure;BME280_temperature;BME280_humidity;BME280_pressure;Samples;Min_cycle;Max_cycle;Signal;HPM_P1;HPM_P2
2022/02/11 00:08:05;;;;;;;;;;;;;;;1.86;100.00;101811.69;2567641;30;138554;-39
2022/02/11 00:10:33;;;;;;;;;;;;;;;1.82;100.00;101815.59;2568202;30;137279;-39
2022/02/11 00:13:02;;;;;;;;;;;;;;;1.84;100.00;101813.63;2567517;30;138628;-39
2022/02/11 00:18:01;;;;;;;;;;;;;;;1.83;100.00;101817.31;2567642;30;137421;-39
2022/02/11 00:20:29;;;;;;;;;;;;;;;1.75;100.00;101809.03;2568720;30;136698;-39
2022/02/11 00:22:56;;;;;;;;;;;;;;;1.70;100.00;101819.34;2569107;30;138281;-39
2022/02/11 00:25:25;;;;;;;;;;;;;;;1.60;100.00;101818.41;2569024;30;137748;-39
2022/02/11 00:33:25;;;;;;;;;;;;;;;1.48;100.00;101813.06;2568071;30;138608;-39
2022/02/11 00:47:13;;;;;;;;;;;;;;;1.29;100.00;101819.97;2568834;30;136843;-39
2022/02/11 01:03:26;;;;;;;;;;;;;;;1.20;100.00;101815.38;2567188;30;137026;-39
2022/02/11 01:05:54;;;;;;;;;;;;;;;1.22;100.00;101818.78;2566014;30;138642;-39
2022/02/11 01:08:22;;;;;;;;;;;;;;;1.16;100.00;101813.91;2568842;30;137914;-39
2022/02/11 01:10:50;;;;;;;;;;;;;;;1.21;100.00;101822.44;2566728;30;138986;-39
2022/02/11 01:13:18;;;;;;;;;;;;;;;1.13;100.00;101809.63;2569366;30;136761;-39
2022/02/11 01:15:54;;;;;;;;;;;;;;;1.07;100.00;101812.00;2567947;30;138429;-39
2022/02/11 01:18:22;;;;;;;;;;;;;;;1.15;100.00;101802.28;2568375;30;136970;-39
2022/02/11 01:20:57;;;;;;;;;;;;;;;1.15;100.00;101806.81;2569804;30;138338;-39
2022/02/11 01:36:39;;;;;;;;;;;;;;;1.05;100.00;101795.09;2567614;30;138980;-39
2022/02/11 01:47:57;;;;;;;;;;;;;;;0.95;100.00;101797.72;2568430;30;137249;-37
2022/02/11 01:50:57;;;;;;;;;;;;;;;0.89;100.00;101800.88;2567146;30;137352;-36
2022/02/11 01:59:27;;;;;;;;;;;;;;;0.86;100.00;101802.00;2568396;30;138248;-37
2022/02/11 02:29:20;;;;;;;;;;;;;;;0.88;100.00;101794.66;2569550;30;137228;-37
2022/02/11 02:58:17;;;;;;;;;;;;;;;0.87;100.00;101798.34;2567285;30;138716;-37
2022/02/11 04:56:20;;;;;;;;;;;;;;;1.83;100.00;101871.13;2569154;30;137134;-37
2022/02/11 05:01:35;;;;;;;;;;;;;;;1.93;100.00;101863.13;2568762;30;137333;-37
2022/02/11 05:04:03;;;;;;;;;;;;;;;1.91;100.00;101877.72;2569500;30;138361;-37
2022/02/11 05:06:30;;;;;;;;;;;;;;;1.92;100.00;101874.03;2567777;30;136822;-37
2022/02/11 05:09:02;;;;;;;;;;;;;;;1.97;100.00;101879.88;2569403;30;139222;-37
2022/02/11 05:11:30;;;;;;;;;;;;;;;2.00;100.00;101887.69;2569559;30;138004;-37
2022/02/11 05:13:58;;;;;;;;;;;;;;;2.04;100.00;101886.44;2567344;30;138634;-37
2022/02/11 05:16:26;;;;;;;;;;;;;;;2.04;100.00;101883.75;2569055;30;137050;-37
2022/02/11 05:18:54;;;;;;;;;;;;;;;2.04;100.00;101886.44;2569263;30;138572;-37
2022/02/11 05:21:22;;;;;;;;;;;;;;;2.04;100.00;101888.31;2568408;30;138765;-37
2022/02/11 05:23:50;;;;;;;;;;;;;;;1.99;100.00;101894.06;2567591;30;137765;-36
2022/02/11 05:26:19;;;;;;;;;;;;;;;2.05;100.00;101903.47;2568485;30;137190;-37
2022/02/11 05:28:46;;;;;;;;;;;;;;;2.10;100.00;101910.16;2567002;30;138476;-37
2022/02/11 05:31:14;;;;;;;;;;;;;;;2.15;100.00;101912.47;2568123;30;136804;-37
2022/02/11 05:33:42;;;;;;;;;;;;;;;2.12;100.00;101902.81;2568198;30;139908;-37
2022/02/11 05:36:10;;;;;;;;;;;;;;;2.10;100.00;101914.69;2568789;30;138129;-37
2022/02/11 05:38:38;;;;;;;;;;;;;;;2.09;100.00;101919.22;2567299;30;138405;-37
2022/02/11 05:41:05;;;;;;;;;;;;;;;2.07;100.00;101918.50;2568013;30;137189;-37
2022/02/11 05:43:33;;;;;;;;;;;;;;;2.15;100.00;101918.72;2568896;30;138583;-37
2022/02/11 05:46:01;;;;;;;;;;;;;;;2.18;100.00;101925.66;2566074;30;137021;-37
2022/02/11 05:48:29;;;;;;;;;;;;;;;2.22;100.00;101921.72;2569743;30;137519;-37
2022/02/11 05:50:57;;;;;;;;;;;;;;;2.26;100.00;101927.72;2568937;30;137864;-37
2022/02/11 05:53:25;;;;;;;;;;;;;;;2.29;100.00;101940.91;2569149;30;138427;-37
2022/02/11 05:55:53;;;;;;;;;;;;;;;2.36;100.00;101939.41;2567592;30;137156;-36
2022/02/11 05:58:20;;;;;;;;;;;;;;;2.35;100.00;101945.78;2569203;30;138335;-37
2022/02/11 06:00:48;;;;;;;;;;;;;;;2.36;100.00;101954.72;2568665;30;137239;-36
2022/02/11 06:03:18;;;;;;;;;;;;;;;2.36;100.00;101960.09;2568584;30;137403;-37
2022/02/11 06:05:46;;;;;;;;;;;;;;;2.38;100.00;101950.06;2567371;30;137015;-37
2022/02/11 06:08:14;;;;;;;;;;;;;;;2.40;100.00;101962.41;2568609;30;138040;-37
2022/02/11 06:10:43;;;;;;;;;;;;;;;2.41;100.00;101961.44;2568020;30;137056;-37
2022/02/11 06:13:11;;;;;;;;;;;;;;;2.40;100.00;101964.25;2568671;30;138496;-37
2022/02/11 06:15:38;;;;;;;;;;;;;;;2.43;100.00;101972.94;2567857;30;137033;-37
2022/02/11 06:18:07;;;;;;;;;;;;;;;2.49;100.00;101974.22;2569254;30;138449;-37
2022/02/11 06:20:34;;;;;;;;;;;;;;;2.51;100.00;101972.25;2569263;30;137064;-37
2022/02/11 06:23:03;;;;;;;;;;;;;;;2.52;100.00;101971.31;2569575;30;138377;-37
2022/02/11 06:25:32;;;;;;;;;;;;;;;2.53;100.00;101981.09;2569508;30;137896;-37
2022/02/11 06:28:00;;;;;;;;;;;;;;;2.62;100.00;101982.13;2568517;30;137328;-36
2022/02/11 06:30:28;;;;;;;;;;;;;;;2.67;100.00;101982.59;2568748;30;137249;-37
2022/02/11 06:33:00;;;;;;;;;;;;;;;2.67;100.00;101992.50;2568397;30;138277;-37
2022/02/11 06:35:31;;;;;;;;;;;;;;;2.67;100.00;101990.69;2568598;30;137809;-37
2022/02/11 06:38:00;;;;;;;;;;;;;;;2.63;100.00;101989.22;2567682;30;137962;-37
2022/02/11 06:40:30;;;;;;;;;;;;;;;2.65;100.00;101994.47;2567025;30;137060;-36
2022/02/11 06:42:58;;;;;;;;;;;;;;;2.63;100.00;102008.06;2567795;30;139236;-37
2022/02/11 06:45:26;;;;;;;;;;;;;;;2.67;100.00;102014.94;2568836;30;136822;-37
2022/02/11 06:47:53;;;;;;;;;;;;;;;2.66;100.00;102021.31;2568605;30;138445;-36
2022/02/11 06:50:21;;;;;;;;;;;;;;;2.63;100.00;102035.03;2567146;30;138300;-37
2022/02/11 06:52:49;;;;;;;;;;;;;;;2.65;100.00;102038.47;2567450;30;137246;-36
2022/02/11 06:55:18;;;;;;;;;;;;;;;2.73;100.00;102049.44;2569605;30;137346;-37
2022/02/11 06:57:47;;;;;;;;;;;;;;;2.73;100.00;102046.75;2567844;30;138547;-37
2022/02/11 07:00:15;;;;;;;;;;;;;;;2.73;100.00;102056.66;2568150;30;136772;-37
2022/02/11 07:02:43;;;;;;;;;;;;;;;2.76;100.00;102066.34;2565010;30;137355;-37
2022/02/11 07:05:11;;;;;;;;;;;;;;;2.76;100.00;102075.25;2568309;30;137255;-37
2022/02/11 07:07:39;;;;;;;;;;;;;;;2.83;100.00;102081.00;2567491;30;137361;-37
2022/02/11 07:10:07;;;;;;;;;;;;;;;2.86;100.00;102088.81;2568118;30;137109;-37
2022/02/11 07:12:35;;;;;;;;;;;;;;;2.87;100.00;102099.47;2569629;30;137267;-37
2022/02/11 07:15:03;;;;;;;;;;;;;;;2.84;100.00;102101.56;2568436;30;138618;-37
2022/02/11 07:17:32;;;;;;;;;;;;;;;2.88;100.00;102114.66;2566268;30;137942;-37
2022/02/11 07:20:00;;;;;;;;;;;;;;;2.96;100.00;102121.25;2569402;30;137297;-37
2022/02/11 07:22:34;;;;;;;;;;;;;;;2.91;100.00;102129.72;2567955;30;138336;-37
2022/02/11 07:25:03;;;;;;;;;;;;;;;2.93;100.00;102138.56;2567887;30;137317;-37
2022/02/11 07:27:31;;;;;;;;;;;;;;;2.95;100.00;102141.97;2568228;30;137906;-37
2022/02/11 07:30:20;;;;;;;;;;;;;;;2.96;100.00;102143.69;2568738;30;137087;-37
2022/02/11 07:32:48;;;;;;;;;;;;;;;2.95;100.00;102144.69;2568110;30;139946;-37
2022/02/11 07:35:16;;;;;;;;;;;;;;;3.01;100.00;102159.44;2568446;30;136853;-37
2022/02/11 07:37:46;;;;;;;;;;;;;;;3.04;100.00;102166.44;2566530;30;138865;-37
2022/02/11 07:40:14;;;;;;;;;;;;;;;3.06;100.00;102165.34;2568416;30;137189;-37
2022/02/11 07:42:42;;;;;;;;;;;;;;;3.08;100.00;102165.19;2566695;30;138017;-39
2022/02/11 07:45:10;;;;;;;;;;;;;;;2.99;100.00;102169.50;2564942;30;136865;-39
2022/02/11 07:47:38;;;;;;;;;;;;;;;2.97;100.00;102179.56;2565749;30;138935;-39
2022/02/11 07:50:07;;;;;;;;;;;;;;;2.93;100.00;102187.09;2568703;30;137368;-39
2022/02/11 07:52:35;;;;;;;;;;;;;;;2.95;100.00;102193.22;2567393;30;137416;-39
2022/02/11 07:55:02;;;;;;;;;;;;;;;2.93;100.00;102205.97;2566316;30;137608;-39
2022/02/11 07:57:30;;;;;;;;;;;;;;;2.92;100.00;102216.88;2567696;30;138635;-39
2022/02/11 08:00:04;;;;;;;;;;;;;;;2.97;100.00;102217.31;2567996;30;137860;-39
2022/02/11 08:02:38;;;;;;;;;;;;;;;2.95;100.00;102225.56;2566284;30;136714;-39
2022/02/11 08:05:07;;;;;;;;;;;;;;;2.90;100.00;102230.47;2568411;30;137908;-39
2022/02/11 08:07:35;;;;;;;;;;;;;;;2.87;100.00;102230.72;2568898;30;136766;-39
2022/02/11 08:10:05;;;;;;;;;;;;;;;2.85;100.00;102232.69;2568435;30;137365;-39
2022/02/11 08:12:34;;;;;;;;;;;;;;;2.96;100.00;102250.66;2566786;30;138314;-39
2022/02/11 08:15:03;;;;;;;;;;;;;;;3.03;100.00;102257.25;2569212;30;136951;-39
2022/02/11 08:17:31;;;;;;;;;;;;;;;3.09;100.00;102255.91;2568594;30;137106;-39
2022/02/11 08:19:59;;;;;;;;;;;;;;;3.07;100.00;102257.88;2568664;30;137905;-39
2022/02/11 08:22:27;;;;;;;;;;;;;;;3.05;100.00;102270.63;2568562;30;138377;-39
2022/02/11 08:24:57;;;;;;;;;;;;;;;3.00;100.00;102279.09;2568312;30;137264;-39
2022/02/11 08:27:25;;;;;;;;;;;;;;;3.06;100.00;102280.44;2567762;30;139136;-39
2022/02/11 08:29:53;;;;;;;;;;;;;;;3.04;100.00;102283.25;2568887;30;137272;-39
2022/02/11 08:32:22;;;;;;;;;;;;;;;3.12;100.00;102288.00;2568758;30;138587;-39
2022/02/11 08:34:50;;;;;;;;;;;;;;;3.12;100.00;102285.31;2566078;30;137648;-39
2022/02/11 08:37:18;;;;;;;;;;;;;;;3.09;100.00;102305.31;2568908;30;139366;-39
2022/02/11 08:39:46;;;;;;;;;;;;;;;3.17;100.00;102312.75;2569681;30;137190;-39
2022/02/11 08:42:14;;;;;;;;;;;;;;;3.16;100.00;102302.94;2569795;30;138307;-39
2022/02/11 08:44:42;;;;;;;;;;;;;;;3.12;100.00;102313.16;2567889;30;137586;-39
2022/02/11 08:47:10;;;;;;;;;;;;;;;3.15;100.00;102322.81;2567781;30;138850;-39
2022/02/11 08:49:41;;;;;;;;;;;;;;;3.21;100.00;102327.72;2569455;30;136860;-39
2022/02/11 08:52:09;;;;;;;;;;;;;;;3.26;100.00;102338.97;2566481;30;138985;-39
2022/02/11 08:54:37;;;;;;;;;;;;;;;3.33;100.00;102339.34;2567835;30;137047;-39
2022/02/11 08:57:05;;;;;;;;;;;;;;;3.33;100.00;102351.94;2568953;30;137192;-39
2022/02/11 08:59:33;;;;;;;;;;;;;;;3.36;100.00;102359.78;2567899;30;137032;-39
2022/02/11 09:02:05;;;;;;;;;;;;;;;3.31;100.00;102358.34;2568637;30;137115;-39
2022/02/11 09:04:32;;;;;;;;;;;;;;;3.34;100.00;102357.25;2569349;30;137161;-39
2022/02/11 09:07:02;;;;;;;;;;;;;;;3.46;100.00;102363.47;2568174;30;138734;-39
2022/02/11 09:09:29;;;;;;;;;;;;;;;3.62;99.65;102365.72;2569185;30;137271;-39
2022/02/11 09:11:57;;;;;;;;;;;;;;;3.69;98.17;102372.31;2568052;30;138030;-39
2022/02/11 09:14:25;;;;;;;;;;;;;;;3.83;96.72;102386.47;2569006;30;136792;-39
2022/02/11 09:16:53;;;;;;;;;;;;;;;3.83;96.69;102391.88;2567454;30;138348;-39
2022/02/11 09:19:25;;;;;;;;;;;;;;;3.83;96.35;102395.44;2566719;30;137949;-39
2022/02/11 09:21:53;;;;;;;;;;;;;;;3.97;96.43;102394.28;2568857;30;137289;-39
2022/02/11 09:24:21;;;;;;;;;;;;;;;4.10;96.99;102390.53;2569037;30;136685;-39
2022/02/11 09:26:49;;;;;;;;;;;;;;;4.26;95.62;102409.00;2566267;30;138838;-39
2022/02/11 09:29:17;;;;;;;;;;;;;;;4.34;93.25;102409.19;2568191;30;137262;-39
2022/02/11 09:31:45;;;;;;;;;;;;;;;4.41;94.39;102415.78;2568778;30;137142;-39
2022/02/11 09:34:13;;;;;;;;;;;;;;;4.43;92.20;102413.78;2568336;30;136745;-39
2022/02/11 09:36:40;;;;;;;;;;;;;;;4.45;91.50;102405.56;2569128;30;138399;-39
2022/02/11 09:39:09;;;;;;;;;;;;;;;4.45;91.73;102419.91;2569256;30;137135;-39
2022/02/11 09:41:37;;;;;;;;;;;;;;;4.40;88.59;102424.03;2569477;30;138202;-39
2022/02/11 09:44:06;;;;;;;;;;;;;;;4.33;89.03;102431.81;2569354;30;136793;-39
2022/02/11 09:46:35;;;;;;;;;;;;;;;4.27;90.63;102446.69;2568820;30;138171;-39
2022/02/11 09:49:02;;;;;;;;;;;;;;;4.32;88.84;102443.59;2568099;30;137105;-39
2022/02/11 09:51:29;;;;;;;;;;;;;;;4.49;87.67;102441.28;2565585;30;138326;-39
2022/02/11 09:53:56;;;;;;;;;;;;;;;4.64;89.76;102455.31;2568367;30;138033;-39
2022/02/11 09:56:24;;;;;;;;;;;;;;;4.86;87.34;102457.03;2567055;30;138194;-39
2022/02/11 09:59:05;;;;;;;;;;;;;;;4.93;90.32;102449.22;2569225;30;136985;-39
2022/02/11 10:01:33;;;;;;;;;;;;;;;4.84;87.27;102459.84;2567605;30;138466;-39
2022/02/11 10:04:11;;;;;;;;;;;;;;;4.75;85.75;102461.50;2567774;30;137976;-39
2022/02/11 10:06:40;;;;;;;;;;;;;;;4.84;86.10;102453.59;2569366;30;138491;-39
2022/02/11 10:09:07;;;;;;;;;;;;;;;5.00;87.69;102464.75;2566505;30;137183;-39
2022/02/11 10:11:35;;;;;;;;;;;;;;;5.01;86.53;102477.28;2567744;30;138364;-39
2022/02/11 10:14:18;;;;;;;;;;;;;;;4.97;84.89;102485.84;2568705;30;137194;-39
2022/02/11 10:17:02;;;;;;;;;;;;;;;4.96;85.75;102493.06;2568698;30;137236;-39
2022/02/11 10:19:43;;;;;;;;;;;;;;;4.89;85.80;102497.31;2567247;30;137420;-39
2022/02/11 10:22:19;;;;;;;;;;;;;;;4.89;84.59;102508.13;2566607;30;138210;-40
2022/02/11 10:24:48;;;;;;;;;;;;;;;4.95;82.31;102518.41;2567395;30;137234;-39
2022/02/11 10:27:36;;;;;;;;;;;;;;;5.13;83.50;102517.81;2568769;30;138518;-39
2022/02/11 10:30:05;;;;;;;;;;;;;;;5.18;77.32;102510.13;2569150;30;136673;-39
2022/02/11 10:32:39;;;;;;;;;;;;;;;5.23;77.53;102523.25;2568640;30;138424;-39
2022/02/11 10:35:09;;;;;;;;;;;;;;;5.30;78.17;102521.72;2567353;30;138126;-39
2022/02/11 10:38:05;;;;;;;;;;;;;;;5.39;79.89;102528.19;2566289;30;138725;-39
2022/02/11 10:40:34;;;;;;;;;;;;;;;5.53;79.55;102540.47;2567743;30;138102;-40
2022/02/11 10:43:02;;;;;;;;;;;;;;;5.62;77.37;102542.34;2568594;30;138210;-39
2022/02/11 10:45:40;;;;;;;;;;;;;;;5.71;77.50;102551.50;2568987;30;136771;-39
2022/02/11 10:48:18;;;;;;;;;;;;;;;5.80;75.94;102549.84;2567455;30;138428;-39
2022/02/11 10:50:47;;;;;;;;;;;;;;;5.77;74.91;102556.38;2568648;30;137785;-39
2022/02/11 10:53:31;;;;;;;;;;;;;;;5.60;72.85;102552.47;2568357;30;137475;-39
2022/02/11 10:56:00;;;;;;;;;;;;;;;5.37;73.83;102557.22;2568196;30;137927;-40
2022/02/11 10:58:28;;;;;;;;;;;;;;;5.57;76.42;102572.56;2568189;30;139297;-39
2022/02/11 11:01:00;;;;;;;;;;;;;;;5.57;74.82;102575.28;2568325;30;136931;-39
2022/02/11 11:03:31;;;;;;;;;;;;;;;5.65;74.48;102566.44;2567721;30;137884;-40
2022/02/11 11:06:01;;;;;;;;;;;;;;;5.71;73.46;102571.34;2567662;30;137060;-39
2022/02/11 11:08:29;;;;;;;;;;;;;;;5.59;74.29;102592.25;2568204;30;138274;-39
2022/02/11 11:10:59;;;;;;;;;;;;;;;5.60;71.64;102572.28;2567144;30;137353;-39
2022/02/11 11:13:28;;;;;;;;;;;;;;;5.65;70.77;102584.56;2565408;30;138331;-40
2022/02/11 11:15:56;;;;;;;;;;;;;;;5.73;69.45;102590.16;2566733;30;137343;-39
2022/02/11 11:18:27;;;;;;;;;;;;;;;5.80;70.58;102594.00;2567576;30;138236;-39
2022/02/11 11:21:00;;;;;;;;;;;;;;;5.81;67.64;102587.59;2568840;30;137002;-39
2022/02/11 11:23:28;;;;;;;;;;;;;;;5.97;68.16;102591.66;2567499;30;136813;-39
2022/02/11 11:26:03;;;;;;;;;;;;;;;6.09;69.24;102595.13;2567588;30;137487;-39
2022/02/11 11:28:37;;;;;;;;;;;;;;;6.31;70.52;102597.59;2567716;30;138403;-39
2022/02/11 11:31:09;;;;;;;;;;;;;;;6.44;68.65;102605.47;2568145;30;137351;-39
2022/02/11 11:33:37;;;;;;;;;;;;;;;6.52;69.72;102603.88;2568513;30;138428;-39
2022/02/11 11:36:06;;;;;;;;;;;;;;;6.78;67.12;102608.75;2568027;30;138029;-39
2022/02/11 11:38:38;;;;;;;;;;;;;;;6.94;67.02;102610.88;2568271;30;138484;-39
2022/02/11 11:41:25;;;;;;;;;;;;;;;6.82;65.34;102624.59;2567375;30;137065;-40
2022/02/11 11:43:55;;;;;;;;;;;;;;;6.71;62.61;102628.31;2567846;30;137816;-40
2022/02/11 11:46:27;;;;;;;;;;;;;;;6.79;62.55;102619.47;2568345;30;137791;-39
2022/02/11 11:49:01;;;;;;;;;;;;;;;7.00;63.83;102630.16;2567736;30;139607;-39
2022/02/11 11:51:35;;;;;;;;;;;;;;;6.84;62.78;102619.88;2567672;30;137000;-40
2022/02/11 11:54:21;;;;;;;;;;;;;;;6.93;62.77;102637.16;2569886;30;138438;-39
2022/02/11 11:56:55;;;;;;;;;;;;;;;6.96;61.71;102636.88;2567636;30;137512;-40
2022/02/11 11:59:25;;;;;;;;;;;;;;;6.61;63.68;102624.72;2567155;30;137319;-40
2022/02/11 12:02:00;;;;;;;;;;;;;;;6.44;65.17;102637.13;2569103;30;137389;-39
2022/02/11 12:04:29;;;;;;;;;;;;;;;6.38;60.83;102633.16;2566416;30;138469;-40
2022/02/11 12:07:08;;;;;;;;;;;;;;;6.33;62.67;102636.28;2569223;30;136936;-39
2022/02/11 12:09:37;;;;;;;;;;;;;;;6.37;64.04;102634.16;2569746;30;138298;-40
2022/02/11 12:12:06;;;;;;;;;;;;;;;6.35;62.78;102637.97;2568634;30;136745;-39
2022/02/11 12:14:38;;;;;;;;;;;;;;;6.38;65.90;102638.56;2569039;30;138405;-40
2022/02/11 12:17:08;;;;;;;;;;;;;;;6.32;62.31;102644.53;2568818;30;137251;-39
2022/02/11 12:19:36;;;;;;;;;;;;;;;6.57;63.86;102637.72;2568923;30;139216;-39
2022/02/11 12:22:07;;;;;;;;;;;;;;;6.82;62.91;102642.72;2569026;30;137088;-39
2022/02/11 12:27:30;;;;;;;;;;;;;;;6.75;58.85;102632.44;2565240;30;137315;-39
2022/02/11 12:30:00;;;;;;;;;;;;;;;7.01;60.03;102642.72;2569047;30;137262;-39
2022/02/11 12:32:52;;;;;;;;;;;;;;;7.16;55.76;102645.84;2568063;30;137991;-39
2022/02/11 12:35:23;;;;;;;;;;;;;;;7.06;57.50;102658.59;2566790;30;138716;-39
2022/02/11 12:37:51;;;;;;;;;;;;;;;6.98;57.27;102656.59;2568462;30;137564;-39
2022/02/11 12:40:25;;;;;;;;;;;;;;;6.73;56.00;102658.88;2566338;30;139014;-40
2022/02/11 12:42:55;;;;;;;;;;;;;;;6.62;58.70;102669.84;2570178;30;137371;-39
2022/02/11 12:45:26;;;;;;;;;;;;;;;6.58;56.19;102672.00;2569456;30;138188;-39
2022/02/11 12:47:54;;;;;;;;;;;;;;;6.75;57.90;102667.72;2569039;30;137263;-39
2022/02/11 12:50:28;;;;;;;;;;;;;;;6.69;55.55;102675.56;2568807;30;138094;-40
2022/02/11 12:52:56;;;;;;;;;;;;;;;6.74;56.68;102676.84;2567724;30;138006;-40
2022/02/11 12:55:24;;;;;;;;;;;;;;;6.73;57.00;102675.16;2568198;30;137208;-40
2022/02/11 12:57:53;;;;;;;;;;;;;;;6.67;57.56;102673.00;2568605;30;137948;-40
2022/02/11 13:00:24;;;;;;;;;;;;;;;6.81;55.33;102669.00;2569400;30;137016;-39
2022/02/11 13:02:58;;;;;;;;;;;;;;;7.18;57.67;102675.56;2570021;30;137567;-39
2022/02/11 13:05:27;;;;;;;;;;;;;;;7.36;52.78;102677.53;2568684;30;137690;-40
2022/02/11 13:07:56;;;;;;;;;;;;;;;7.46;52.53;102681.09;2567739;30;136635;-39
2022/02/11 13:10:26;;;;;;;;;;;;;;;7.52;54.17;102682.34;2566951;30;139928;-39
2022/02/11 13:12:55;;;;;;;;;;;;;;;7.62;54.94;102683.22;2569331;30;137164;-40
2022/02/11 13:15:27;;;;;;;;;;;;;;;7.84;57.42;102689.28;2568714;30;138830;-41
2022/02/11 13:18:04;;;;;;;;;;;;;;;7.59;50.46;102691.66;2568696;30;136666;-39
2022/02/11 13:20:35;;;;;;;;;;;;;;;7.32;51.29;102688.69;2568609;30;138415;-39
2022/02/11 13:23:03;;;;;;;;;;;;;;;7.10;51.77;102705.28;2568927;30;136866;-39
2022/02/11 13:25:32;;;;;;;;;;;;;;;6.97;51.53;102692.00;2568485;30;138282;-40
2022/02/11 13:28:10;;;;;;;;;;;;;;;6.88;52.94;102693.69;2567577;30;137962;-39
2022/02/11 13:30:43;;;;;;;;;;;;;;;6.79;52.86;102700.84;2568314;30;138406;-39
2022/02/11 13:33:24;;;;;;;;;;;;;;;6.83;52.11;102698.69;2569290;30;137875;-39
2022/02/11 13:35:53;;;;;;;;;;;;;;;6.82;54.30;102699.69;2569904;30;139237;-40
2022/02/11 13:38:27;;;;;;;;;;;;;;;6.78;52.71;102698.28;2568538;30;136723;-39
2022/02/11 13:40:56;;;;;;;;;;;;;;;6.65;52.23;102704.84;2567074;30;138480;-40
2022/02/11 13:43:24;;;;;;;;;;;;;;;6.67;55.10;102692.00;2567448;30;137793;-37
2022/02/11 13:45:54;;;;;;;;;;;;;;;6.74;54.05;102694.97;2569674;30;138132;-37
2022/02/11 13:48:23;;;;;;;;;;;;;;;6.67;53.44;102697.41;2569539;30;136955;-37
2022/02/11 13:51:12;;;;;;;;;;;;;;;6.65;51.17;102699.41;2568181;30;138072;-37
2022/02/11 13:53:39;;;;;;;;;;;;;;;6.57;52.34;102697.41;2568417;30;136815;-37
2022/02/11 13:56:10;;;;;;;;;;;;;;;6.51;54.02;102702.50;2568379;30;138064;-37
2022/02/11 13:58:39;;;;;;;;;;;;;;;6.38;55.77;102700.06;2568844;30;137063;-37
2022/02/11 14:01:36;;;;;;;;;;;;;;;6.34;56.91;102713.03;2568302;30;138525;-37
2022/02/11 14:04:06;;;;;;;;;;;;;;;6.18;55.69;102708.13;2568111;30;137922;-37
2022/02/11 14:06:37;;;;;;;;;;;;;;;6.16;56.76;102719.13;2570996;30;138371;-37
2022/02/11 14:09:08;;;;;;;;;;;;;;;6.16;55.34;102724.53;2568245;30;137876;-37
2022/02/11 14:11:40;;;;;;;;;;;;;;;6.12;54.48;102725.81;2568184;30;139463;-37
2022/02/11 14:14:12;;;;;;;;;;;;;;;6.04;53.34;102739.16;2567596;30;137227;-37
2022/02/11 14:16:39;;;;;;;;;;;;;;;6.01;52.68;102736.72;2567916;30;139080;-37
2022/02/11 14:19:08;;;;;;;;;;;;;;;5.98;54.49;102743.25;2566003;30;137540;-37
2022/02/11 14:21:36;;;;;;;;;;;;;;;6.00;54.95;102743.97;2568375;30;137441;-37
2022/02/11 14:24:05;;;;;;;;;;;;;;;6.07;57.07;102748.88;2566591;30;137932;-37
2022/02/11 14:26:33;;;;;;;;;;;;;;;6.16;56.91;102754.34;2569352;30;137153;-38
2022/02/11 14:29:01;;;;;;;;;;;;;;;6.13;55.82;102754.63;2568523;30;137038;-37
2022/02/11 14:31:29;;;;;;;;;;;;;;;6.19;55.49;102758.63;2568449;30;138093;-37
2022/02/11 14:33:58;;;;;;;;;;;;;;;6.14;53.89;102759.06;2568616;30;137868;-37
2022/02/11 14:36:26;;;;;;;;;;;;;;;6.17;54.38;102753.34;2569180;30;138290;-37
2022/02/11 14:38:53;;;;;;;;;;;;;;;6.31;52.94;102751.25;2569691;30;136772;-37
2022/02/11 14:44:08;;;;;;;;;;;;;;;6.48;50.93;102763.28;2568972;30;136983;-37
2022/02/11 14:46:36;;;;;;;;;;;;;;;6.51;49.69;102767.59;2570506;30;136851;-37
2022/02/11 14:49:04;;;;;;;;;;;;;;;6.71;50.71;102763.94;2567752;30;137080;-37
2022/02/11 14:51:34;;;;;;;;;;;;;;;6.79;51.50;102770.53;2568017;30;138231;-37
2022/02/11 14:54:11;;;;;;;;;;;;;;;6.88;50.52;102770.56;2568070;30;137314;-37
2022/02/11 14:56:39;;;;;;;;;;;;;;;7.02;52.04;102772.00;2569234;30;138230;-38
2022/02/11 14:59:10;;;;;;;;;;;;;;;7.01;50.34;102778.44;2566701;30;137599;-37
2022/02/11 15:01:42;;;;;;;;;;;;;;;7.09;53.33;102779.56;2568254;30;139456;-37
2022/02/11 15:04:10;;;;;;;;;;;;;;;7.26;50.97;102781.59;2568006;30;137431;-37
2022/02/11 15:06:38;;;;;;;;;;;;;;;7.20;51.20;102782.16;2568771;30;137102;-37
2022/02/11 15:09:08;;;;;;;;;;;;;;;7.15;53.07;102787.13;2566476;30;137261;-37
2022/02/11 15:11:39;;;;;;;;;;;;;;;6.92;55.31;102792.84;2567804;30;138894;-37
2022/02/11 15:14:07;;;;;;;;;;;;;;;6.75;58.75;102797.06;2566584;30;138530;-37
2022/02/11 15:16:35;;;;;;;;;;;;;;;6.63;59.97;102801.78;2568296;30;139112;-37
2022/02/11 15:19:04;;;;;;;;;;;;;;;6.40;59.20;102804.69;2569447;30;136787;-36
2022/02/11 15:21:33;;;;;;;;;;;;;;;6.21;62.03;102810.00;2567878;30;139426;-37
2022/02/11 15:24:01;;;;;;;;;;;;;;;6.00;62.04;102816.28;2568189;30;139477;-37
2022/02/11 15:26:29;;;;;;;;;;;;;;;5.69;61.73;102817.06;2568420;30;138537;-37
2022/02/11 15:28:57;;;;;;;;;;;;;;;5.56;61.00;102827.22;2566616;30;137293;-37
2022/02/11 15:31:25;;;;;;;;;;;;;;;5.48;61.33;102825.16;2568643;30;140179;-37
2022/02/11 15:33:53;;;;;;;;;;;;;;;5.27;61.70;102825.97;2568095;30;137296;-37
2022/02/11 15:36:21;;;;;;;;;;;;;;;5.29;63.72;102826.69;2565323;30;137134;-37
2022/02/11 15:38:49;;;;;;;;;;;;;;;5.29;64.40;102820.44;2566597;30;136808;-37
2022/02/11 15:41:17;;;;;;;;;;;;;;;5.19;61.75;102823.06;2568068;30;138331;-37
2022/02/11 15:43:44;;;;;;;;;;;;;;;5.17;63.87;102830.44;2571075;30;137350;-37
2022/02/11 15:46:12;;;;;;;;;;;;;;;5.12;62.19;102838.94;2568544;30;139262;-37
2022/02/11 15:48:41;;;;;;;;;;;;;;;5.07;62.20;102840.31;2566752;30;136897;-38
2022/02/11 15:51:10;;;;;;;;;;;;;;;4.97;61.66;102838.34;2567495;30;137131;-37
2022/02/11 15:53:38;;;;;;;;;;;;;;;4.94;62.61;102837.75;2568409;30;136907;-37
2022/02/11 15:56:06;;;;;;;;;;;;;;;4.90;60.87;102847.97;2569116;30;137287;-37
2022/02/11 15:58:35;;;;;;;;;;;;;;;4.94;62.23;102848.59;2568532;30;137109;-37
2022/02/11 16:01:02;;;;;;;;;;;;;;;4.97;61.51;102851.03;2568258;30;137294;-37
2022/02/11 16:03:31;;;;;;;;;;;;;;;5.01;62.34;102860.63;2568258;30;137389;-37
2022/02/11 16:06:01;;;;;;;;;;;;;;;4.98;62.11;102859.00;2568440;30;137784;-37
2022/02/11 16:08:29;;;;;;;;;;;;;;;4.96;60.05;102866.41;2568113;30;136960;-37
2022/02/11 16:10:57;;;;;;;;;;;;;;;4.93;58.71;102860.41;2567843;30;138576;-37
2022/02/11 16:13:25;;;;;;;;;;;;;;;4.89;61.34;102862.47;2569565;30;136710;-37
2022/02/11 16:15:53;;;;;;;;;;;;;;;4.87;61.06;102864.44;2568260;30;138279;-37
2022/02/11 16:18:23;;;;;;;;;;;;;;;4.87;61.71;102869.84;2567702;30;137560;-37
2022/02/11 16:20:52;;;;;;;;;;;;;;;4.79;61.18;102862.34;2567882;30;138506;-37
2022/02/11 16:23:21;;;;;;;;;;;;;;;4.71;61.23;102871.09;2567218;30;137188;-37
2022/02/11 16:25:50;;;;;;;;;;;;;;;4.64;59.08;102879.81;2564474;30;139182;-37
2022/02/11 16:28:19;;;;;;;;;;;;;;;4.59;58.76;102872.94;2568837;30;137231;-38
2022/02/11 16:30:47;;;;;;;;;;;;;;;4.50;59.00;102881.78;2567370;30;139140;-37
2022/02/11 16:33:15;;;;;;;;;;;;;;;4.49;61.38;102890.00;2567310;30;136688;-37
2022/02/11 16:35:43;;;;;;;;;;;;;;;4.28;59.49;102869.97;2569096;30;138476;-37
2022/02/11 16:38:11;;;;;;;;;;;;;;;4.32;60.34;102884.94;2568458;30;137194;-37
2022/02/11 16:40:39;;;;;;;;;;;;;;;4.24;58.86;102892.81;2569501;30;138343;-37
2022/02/11 16:43:10;;;;;;;;;;;;;;;4.28;61.17;102890.72;2565942;30;138126;-37
2022/02/11 16:45:38;;;;;;;;;;;;;;;4.26;60.29;102896.25;2568649;30;137578;-37
2022/02/11 16:48:06;;;;;;;;;;;;;;;4.23;63.18;102899.19;2565234;30;137757;-37
2022/02/11 16:50:34;;;;;;;;;;;;;;;4.20;64.81;102895.84;2569688;30;137258;-37
2022/02/11 16:53:02;;;;;;;;;;;;;;;4.11;65.27;102895.59;2568589;30;138030;-37